Time;durP1;ratioP1;P1;durP2;ratioP2;P2;SDS_P1;SDS_P2;PMS_P1;PMS_P2;Temp;Humidity;BMP_temperature;BMP_pressure;BME280_temperature;BME280_humidity;BME280_pressure;Samples;Min_cycle;Max_cycle;Signal;HPM_P1;HPM_P2
2023/06/01 00:00:14;;;;;;;3.72;2.55;;;17.70;62.70;;;;;;5006570;28;20440;-75
2023/06/01 00:02:41;;;;;;;3.00;2.20;;;17.70;62.90;;;;;;5013228;28;20428;-75
2023/06/01 00:05:09;;;;;;;3.63;3.10;;;17.70;63.30;;;;;;5012095;28;20447;-76
2023/06/01 00:07:35;;;;;;;3.20;2.40;;;17.70;63.50;;;;;;5014405;28;20474;-74
2023/06/01 00:10:02;;;;;;;4.75;2.80;;;17.60;63.20;;;;;;5013491;28;20712;-76
2023/06/01 00:12:29;;;;;;;3.92;2.72;;;17.60;63.80;;;;;;5013492;28;20451;-75
2023/06/01 00:14:57;;;;;;;4.35;2.35;;;17.50;64.20;;;;;;5011538;28;20432;-75
2023/06/01 00:17:24;;;;;;;3.63;2.47;;;17.50;64.80;;;;;;5010984;28;20432;-76
2023/06/01 00:19:52;;;;;;;4.30;2.50;;;17.40;64.40;;;;;;5011363;28;20431;-75
2023/06/01 00:22:19;;;;;;;3.67;2.40;;;17.40;65.30;;;;;;5009722;28;20436;-74
2023/06/01 00:24:46;;;;;;;3.47;2.53;;;17.40;65.70;;;;;;5014721;28;20562;-75
2023/06/01 00:27:13;;;;;;;4.15;2.70;;;17.30;65.90;;;;;;5010826;28;20436;-74
2023/06/01 00:29:39;;;;;;;5.55;2.72;;;17.30;66.60;;;;;;5010113;28;20437;-75
2023/06/01 00:32:08;;;;;;;4.20;2.90;;;17.30;67.10;;;;;;5018687;28;20425;-75
2023/06/01 00:34:34;;;;;;;3.50;2.30;;;17.30;67.70;;;;;;5017538;28;20436;-75
2023/06/01 00:37:01;;;;;;;3.70;2.60;;;17.30;67.70;;;;;;5010190;28;20503;-75
2023/06/01 00:39:28;;;;;;;3.10;2.33;;;17.20;67.90;;;;;;5014281;28;20432;-76
2023/06/01 00:41:55;;;;;;;3.38;2.60;;;17.30;68.40;;;;;;5017624;28;20446;-74
2023/06/01 00:44:21;;;;;;;4.18;2.40;;;17.20;67.90;;;;;;5006129;28;20436;-75
2023/06/01 00:46:50;;;;;;;2.83;2.20;;;17.20;68.20;;;;;;5012990;28;20436;-73
2023/06/01 00:49:18;;;;;;;3.60;2.50;;;17.20;68.70;;;;;;5015023;28;20428;-75
2023/06/01 00:51:45;;;;;;;4.03;2.33;;;17.10;69.20;;;;;;5021022;28;20431;-74
2023/06/01 00:54:13;;;;;;;4.22;2.53;;;17.10;68.90;;;;;;5015094;28;20416;-74
2023/06/01 00:56:40;;;;;;;3.70;2.40;;;17.10;69.70;;;;;;5010487;28;20442;-74
2023/06/01 00:59:07;;;;;;;4.32;2.60;;;17.10;69.40;;;;;;5008891;28;21062;-75
2023/06/01 01:01:33;;;;;;;4.95;2.28;;;17.00;69.50;;;;;;5010153;28;20826;-74
2023/06/01 01:04:00;;;;;;;4.10;2.70;;;16.90;69.70;;;;;;5009774;28;20937;-74
2023/06/01 01:06:37;;;;;;;4.80;2.08;;;16.90;70.70;;;;;;5011427;28;20954;-74
2023/06/01 01:09:18;;;;;;;2.50;2.28;;;16.90;70.40;;;;;;5011757;28;20425;-75
2023/06/01 01:11:51;;;;;;;4.00;2.38;;;16.80;70.40;;;;;;5023806;28;20429;-76
2023/06/01 01:14:23;;;;;;;3.38;2.40;;;16.80;71.20;;;;;;5010987;28;20459;-74
2023/06/01 01:16:59;;;;;;;3.67;2.47;;;16.80;70.70;;;;;;5014902;28;20443;-76
2023/06/01 01:19:37;;;;;;;3.10;2.28;;;16.70;72.10;;;;;;5009787;28;20877;-76
2023/06/01 01:22:22;;;;;;;4.25;2.30;;;16.70;71.50;;;;;;5004986;28;20511;-75
2023/06/01 01:25:09;;;;;;;3.83;2.30;;;16.70;72.10;;;;;;5003933;28;20436;-74
2023/06/01 01:27:46;;;;;;;3.75;2.25;;;16.60;72.20;;;;;;4999619;28;20517;-76
2023/06/01 01:30:15;;;;;;;2.40;2.13;;;16.60;72.60;;;;;;5003284;28;20436;-74
2023/06/01 01:32:42;;;;;;;3.75;2.20;;;16.60;72.60;;;;;;5005976;28;20436;-74
2023/06/01 01:35:11;;;;;;;3.40;2.10;;;16.50;72.90;;;;;;5008172;28;20943;-75
2023/06/01 01:37:38;;;;;;;4.40;2.60;;;16.50;73.20;;;;;;5003808;28;20903;-73
2023/06/01 01:40:06;;;;;;;3.17;2.15;;;16.50;73.50;;;;;;5003234;28;20420;-76
2023/06/01 01:42:33;;;;;;;3.90;2.10;;;16.50;73.80;;;;;;5001620;28;20799;-74
2023/06/01 01:44:59;;;;;;;4.38;2.53;;;16.40;73.90;;;;;;5003161;28;20441;-75
2023/06/01 01:47:34;;;;;;;5.80;2.97;;;16.40;74.20;;;;;;5006942;28;20926;-74
2023/06/01 01:50:06;;;;;;;4.27;3.00;;;16.40;74.60;;;;;;5008609;28;20436;-75
2023/06/01 01:52:37;;;;;;;3.83;2.90;;;16.40;74.70;;;;;;5017009;28;20471;-76
2023/06/01 01:55:06;;;;;;;5.40;2.60;;;16.40;75.00;;;;;;5007516;28;20445;-75
2023/06/01 01:57:34;;;;;;;3.90;2.40;;;16.30;75.00;;;;;;5009137;28;20432;-74
2023/06/01 02:00:02;;;;;;;3.45;2.60;;;16.30;75.50;;;;;;5008472;28;20499;-74
2023/06/01 02:02:30;;;;;;;4.20;2.95;;;16.30;76.30;;;;;;5009648;28;20432;-75
2023/06/01 02:04:57;;;;;;;3.72;2.78;;;16.30;75.80;;;;;;5017275;28;20507;-75
2023/06/01 02:07:23;;;;;;;4.60;2.95;;;16.30;75.70;;;;;;5009791;28;20416;-73
2023/06/01 02:09:50;;;;;;;4.50;2.83;;;16.20;76.40;;;;;;5009708;28;20490;-74
2023/06/01 02:12:17;;;;;;;3.95;2.97;;;16.20;76.40;;;;;;5029028;28;20419;-74
2023/06/01 02:14:44;;;;;;;4.80;3.20;;;16.20;76.90;;;;;;5019446;28;20444;-75
2023/06/01 02:17:10;;;;;;;3.20;2.90;;;16.20;76.90;;;;;;5016338;28;20439;-74
2023/06/01 02:19:38;;;;;;;4.68;2.90;;;16.10;76.90;;;;;;5013254;28;20433;-74
2023/06/01 02:22:06;;;;;;;5.53;3.30;;;16.10;77.30;;;;;;5011577;28;20703;-74
2023/06/01 02:24:32;;;;;;;4.45;3.33;;;16.10;77.50;;;;;;5019598;28;20423;-75
2023/06/01 02:26:59;;;;;;;4.97;3.40;;;16.10;77.90;;;;;;5015242;28;20421;-74
2023/06/01 02:29:26;;;;;;;4.30;3.50;;;16.00;77.60;;;;;;5019710;28;20452;-75
2023/06/01 02:31:53;;;;;;;5.05;3.10;;;16.00;78.20;;;;;;5016561;28;20452;-74
2023/06/01 02:34:20;;;;;;;3.60;2.78;;;16.00;78.60;;;;;;5007589;28;20902;-75
2023/06/01 02:36:49;;;;;;;4.07;3.10;;;16.00;78.50;;;;;;5012281;28;20590;-74
2023/06/01 02:39:15;;;;;;;4.22;2.97;;;15.90;79.10;;;;;;5009884;28;20416;-76
2023/06/01 02:41:42;;;;;;;4.40;3.13;;;15.90;79.40;;;;;;5010169;28;20420;-75
2023/06/01 02:44:09;;;;;;;5.05;3.20;;;15.80;79.40;;;;;;5010326;28;20899;-75
2023/06/01 02:46:36;;;;;;;3.95;3.38;;;15.80;79.70;;;;;;5010167;28;20425;-75
2023/06/01 02:49:03;;;;;;;3.53;2.90;;;15.70;79.80;;;;;;5008667;28;21067;-75
2023/06/01 02:51:31;;;;;;;5.30;3.40;;;15.70;80.00;;;;;;5016473;28;20428;-75
2023/06/01 02:53:59;;;;;;;5.18;3.47;;;15.70;80.30;;;;;;5009192;28;20433;-75
2023/06/01 02:56:26;;;;;;;4.30;2.97;;;15.70;80.40;;;;;;5009595;28;21030;-74
2023/06/01 02:58:53;;;;;;;4.00;3.20;;;15.70;80.40;;;;;;5009203;28;20424;-76
2023/06/01 03:01:20;;;;;;;4.97;3.05;;;15.60;80.60;;;;;;5027294;28;20415;-75
2023/06/01 03:03:48;;;;;;;5.80;3.05;;;15.50;80.90;;;;;;5009688;28;20444;-76
2023/06/01 03:06:17;;;;;;;5.47;3.50;;;15.50;81.00;;;;;;5011116;28;20498;-74
2023/06/01 03:08:44;;;;;;;5.20;3.30;;;15.50;80.70;;;;;;5014766;28;20459;-75
2023/06/01 03:11:12;;;;;;;5.38;3.60;;;15.50;80.60;;;;;;5010305;28;20420;-75
2023/06/01 03:13:38;;;;;;;4.22;3.50;;;15.50;80.90;;;;;;5016119;28;20456;-75
2023/06/01 03:16:05;;;;;;;4.30;3.30;;;15.40;81.30;;;;;;5010787;28;20444;-75
2023/06/01 03:18:32;;;;;;;4.38;3.22;;;15.40;81.50;;;;;;5017452;28;20444;-74
2023/06/01 03:20:59;;;;;;;4.72;3.50;;;15.30;81.80;;;;;;5021207;28;20784;-74
2023/06/01 03:23:26;;;;;;;4.32;3.50;;;15.30;82.00;;;;;;5008577;28;20516;-75
2023/06/01 03:25:53;;;;;;;4.57;3.75;;;15.30;82.10;;;;;;5010836;28;20425;-75
2023/06/01 03:28:21;;;;;;;6.22;3.90;;;15.30;82.40;;;;;;5014781;28;20496;-74
2023/06/01 03:30:48;;;;;;;4.65;3.20;;;15.20;82.50;;;;;;5008461;28;20919;-73
2023/06/01 03:33:15;;;;;;;5.57;3.80;;;15.30;82.80;;;;;;5008451;28;20432;-75
2023/06/01 03:35:41;;;;;;;5.60;3.80;;;15.20;83.20;;;;;;5017537;28;20422;-74
2023/06/01 03:38:08;;;;;;;5.13;3.67;;;15.20;83.40;;;;;;5010938;28;20898;-74
2023/06/01 03:40:35;;;;;;;4.68;3.47;;;15.10;83.50;;;;;;5048075;22;20490;-74
2023/06/01 03:43:02;;;;;;;5.50;3.70;;;15.10;83.80;;;;;;5081635;28;20452;-74
2023/06/01 03:45:30;;;;;;;6.32;3.80;;;15.10;84.00;;;;;;5087433;28;20452;-74
2023/06/01 03:47:57;;;;;;;5.30;4.20;;;15.10;84.50;;;;;;5084646;28;20471;-74
2023/06/01 03:50:23;;;;;;;5.03;4.38;;;15.00;84.90;;;;;;5091821;28;21051;-74
2023/06/01 03:52:50;;;;;;;7.73;4.23;;;15.00;85.30;;;;;;5100706;28;20437;-74
2023/06/01 03:55:17;;;;;;;5.80;4.03;;;15.00;85.60;;;;;;5103660;28;20523;-74
2023/06/01 03:57:44;;;;;;;5.97;4.65;;;15.00;86.30;;;;;;5098901;28;20520;-74
2023/06/01 04:00:18;;;;;;;6.07;4.95;;;15.00;86.10;;;;;;5104753;28;20563;-74
2023/06/01 04:02:50;;;;;;;7.22;5.28;;;15.00;86.50;;;;;;5104603;28;20438;-74
2023/06/01 04:05:18;;;;;;;7.43;5.25;;;14.90;86.80;;;;;;5105827;28;20934;-74
2023/06/01 04:07:45;;;;;;;8.55;5.50;;;14.90;87.30;;;;;;5105211;28;20462;-74
2023/06/01 04:10:13;;;;;;;7.15;6.07;;;14.90;87.80;;;;;;5103614;28;20498;-74
2023/06/01 04:12:41;;;;;;;6.40;5.25;;;14.90;88.00;;;;;;5099352;28;20762;-75
2023/06/01 04:15:09;;;;;;;5.30;4.80;;;14.90;88.40;;;;;;5107447;28;20488;-74
2023/06/01 04:17:37;;;;;;;6.78;5.55;;;14.80;88.50;;;;;;5103210;28;20493;-74
2023/06/01 04:20:06;;;;;;;7.55;5.93;;;14.90;89.00;;;;;;5104290;28;20819;-74
2023/06/01 04:22:34;;;;;;;8.27;5.80;;;14.80;89.50;;;;;;5095093;28;20416;-74
2023/06/01 04:25:00;;;;;;;6.32;5.70;;;14.80;89.50;;;;;;5095291;28;20491;-74
2023/06/01 04:27:27;;;;;;;8.45;6.28;;;14.80;89.70;;;;;;5101838;28;20417;-74
2023/06/01 04:29:54;;;;;;;7.85;5.93;;;14.80;90.00;;;;;;5101387;28;20806;-74
2023/06/01 04:32:22;;;;;;;6.50;5.90;;;14.80;90.10;;;;;;5106866;28;20439;-74
2023/06/01 04:34:49;;;;;;;9.90;7.25;;;14.80;90.10;;;;;;5106109;28;20431;-74
2023/06/01 04:37:20;;;;;;;8.95;6.60;;;14.80;90.30;;;;;;5104263;28;20424;-74
2023/06/01 04:39:49;;;;;;;7.30;6.47;;;14.80;90.50;;;;;;5103743;28;20508;-67
2023/06/01 04:42:16;;;;;;;11.02;7.07;;;14.80;90.40;;;;;;5102563;28;21316;-65
2023/06/01 04:44:45;;;;;;;9.98;7.20;;;14.70;90.60;;;;;;5097227;28;20445;-67
2023/06/01 04:47:12;;;;;;;8.30;7.50;;;14.70;90.70;;;;;;5100972;28;20908;-67
2023/06/01 04:49:42;;;;;;;10.77;7.90;;;14.70;90.80;;;;;;5094853;28;20447;-73
2023/06/01 04:52:10;;;;;;;10.70;7.13;;;14.80;90.70;;;;;;5095496;28;21155;-75
2023/06/01 04:54:38;;;;;;;8.18;7.22;;;14.80;90.60;;;;;;5098617;28;20857;-73
2023/06/01 04:57:06;;;;;;;10.00;8.10;;;14.80;90.70;;;;;;5097425;28;20494;-73
2023/06/01 04:59:33;;;;;;;10.80;8.13;;;14.90;90.70;;;;;;5094474;28;20577;-73
2023/06/01 05:02:00;;;;;;;8.75;7.75;;;14.90;90.80;;;;;;5094378;28;20431;-70
2023/06/01 05:04:27;;;;;;;10.25;8.60;;;14.90;90.60;;;;;;5096868;28;20434;-70
2023/06/01 05:06:53;;;;;;;8.48;6.95;;;14.90;90.70;;;;;;5100929;28;20576;-70
2023/06/01 05:09:20;;;;;;;9.43;7.90;;;15.00;91.00;;;;;;5096850;28;20433;-70
2023/06/01 05:11:48;;;;;;;8.52;7.72;;;15.10;90.40;;;;;;5096007;28;20432;-70
2023/06/01 05:14:15;;;;;;;8.50;7.43;;;15.10;90.20;;;;;;5099458;28;20439;-70
2023/06/01 05:16:42;;;;;;;9.90;8.18;;;15.10;90.10;;;;;;5095235;28;20432;-70
2023/06/01 05:19:09;;;;;;;8.18;7.25;;;15.30;90.10;;;;;;5090082;28;20517;-70
2023/06/01 05:21:36;;;;;;;8.40;7.50;;;15.40;89.20;;;;;;5094961;28;20483;-70
2023/06/01 05:24:02;;;;;;;10.40;8.40;;;15.60;88.30;;;;;;5098607;28;20434;-70
2023/06/01 05:26:30;;;;;;;12.02;9.10;;;15.70;86.90;;;;;;5101830;28;20443;-70
2023/06/01 05:28:58;;;;;;;12.18;8.88;;;15.80;86.40;;;;;;5094790;28;20425;-70
2023/06/01 05:31:24;;;;;;;14.77;8.80;;;16.00;86.10;;;;;;5093847;28;20428;-70
2023/06/01 05:33:52;;;;;;;10.17;9.03;;;16.30;85.10;;;;;;5093444;28;20485;-70
2023/06/01 05:36:18;;;;;;;11.35;9.40;;;16.40;83.30;;;;;;5100557;28;20466;-70
2023/06/01 05:38:45;;;;;;;10.57;9.57;;;16.30;82.80;;;;;;5083212;28;20616;-70
2023/06/01 05:41:12;;;;;;;12.40;11.10;;;16.20;83.20;;;;;;5096770;28;20434;-70
2023/06/01 05:43:39;;;;;;;12.20;11.00;;;16.20;83.60;;;;;;5101254;28;20881;-69
2023/06/01 05:46:07;;;;;;;11.40;10.30;;;16.20;83.40;;;;;;5101420;28;20712;-69
2023/06/01 05:48:34;;;;;;;11.65;10.38;;;16.20;83.80;;;;;;5097439;28;20778;-69
2023/06/01 05:51:01;;;;;;;11.80;10.60;;;16.40;83.10;;;;;;5093616;28;20513;-69
2023/06/01 05:53:29;;;;;;;12.20;11.00;;;16.40;82.30;;;;;;5096725;28;20775;-67
2023/06/01 05:55:56;;;;;;;14.77;13.27;;;16.60;81.20;;;;;;5098092;28;20467;-71
2023/06/01 05:58:23;;;;;;;16.75;13.82;;;16.60;80.40;;;;;;5095866;28;20420;-70
2023/06/01 06:00:50;;;;;;;15.48;13.93;;;16.50;80.90;;;;;;5100689;28;20508;-71
2023/06/01 06:03:18;;;;;;;18.13;15.30;;;16.30;81.70;;;;;;5091705;28;20790;-70
2023/06/01 06:05:45;;;;;;;18.10;16.20;;;16.10;82.00;;;;;;5099070;28;20860;-68
2023/06/01 06:08:12;;;;;;;15.70;14.10;;;16.00;82.50;;;;;;5101122;28;20609;-71
2023/06/01 06:10:38;;;;;;;18.08;16.17;;;15.80;83.50;;;;;;5097838;28;20502;-69
2023/06/01 06:13:05;;;;;;;18.42;16.52;;;15.70;84.20;;;;;;5096192;28;20911;-68
2023/06/01 06:15:32;;;;;;;18.13;16.20;;;15.80;85.30;;;;;;5098303;28;20421;-70
2023/06/01 06:17:58;;;;;;;20.00;16.55;;;15.70;85.00;;;;;;5102263;28;20416;-71
2023/06/01 06:20:27;;;;;;;18.70;16.00;;;15.70;85.80;;;;;;5087669;28;20798;-71
2023/06/01 06:22:53;;;;;;;18.92;16.67;;;15.80;84.50;;;;;;5093991;28;20511;-72
2023/06/01 06:25:21;;;;;;;17.67;15.93;;;15.80;84.50;;;;;;5099027;28;20424;-71
2023/06/01 06:27:47;;;;;;;18.33;15.70;;;15.90;84.30;;;;;;5093891;28;20489;-70
2023/06/01 06:30:14;;;;;;;18.65;16.85;;;15.90;84.20;;;;;;5092562;28;20432;-70
2023/06/01 06:32:41;;;;;;;19.70;17.60;;;16.00;84.20;;;;;;5100211;28;20424;-68
2023/06/01 06:35:12;;;;;;;18.73;16.80;;;16.00;84.10;;;;;;5087184;28;20524;-69
2023/06/01 06:37:41;;;;;;;20.63;17.48;;;16.00;84.60;;;;;;5093482;28;20440;-70
2023/06/01 06:40:09;;;;;;;19.42;17.33;;;16.10;84.70;;;;;;5091367;28;20437;-72
2023/06/01 06:42:36;;;;;;;19.30;17.17;;;16.10;83.90;;;;;;5098788;28;20427;-67
2023/06/01 06:45:04;;;;;;;20.40;18.30;;;16.20;84.10;;;;;;5095615;28;20591;-64
2023/06/01 06:47:31;;;;;;;18.35;16.55;;;16.20;82.90;;;;;;5095696;28;20442;-63
2023/06/01 06:49:58;;;;;;;18.30;16.60;;;16.20;84.10;;;;;;5090277;28;20502;-65
2023/06/01 06:52:25;;;;;;;19.48;17.58;;;16.30;83.70;;;;;;5090121;28;20424;-64
2023/06/01 06:54:53;;;;;;;18.30;16.43;;;16.30;82.30;;;;;;5095988;28;20423;-64
2023/06/01 06:57:19;;;;;;;18.33;16.35;;;16.40;82.50;;;;;;5096257;28;20499;-64
2023/06/01 06:59:46;;;;;;;16.70;15.10;;;16.40;82.10;;;;;;5086693;28;20429;-65
2023/06/01 07:02:13;;;;;;;17.80;16.00;;;16.50;81.70;;;;;;5087662;28;20425;-65
2023/06/01 07:04:40;;;;;;;17.30;15.60;;;16.70;80.70;;;;;;5095069;28;20521;-65
2023/06/01 07:07:07;;;;;;;17.60;15.80;;;16.80;79.70;;;;;;5092102;28;20542;-65
2023/06/01 07:09:34;;;;;;;16.50;14.90;;;17.00;78.70;;;;;;5095907;28;20415;-64
2023/06/01 07:12:02;;;;;;;16.10;14.60;;;17.00;77.90;;;;;;5099606;28;20438;-64
2023/06/01 07:14:29;;;;;;;17.67;15.93;;;17.10;77.00;;;;;;5093849;28;20425;-64
2023/06/01 07:16:55;;;;;;;18.90;17.00;;;17.10;76.40;;;;;;5097331;28;20452;-62
2023/06/01 07:19:22;;;;;;;17.50;15.90;;;16.90;77.10;;;;;;5101622;28;20855;-64
2023/06/01 07:21:49;;;;;;;17.23;15.43;;;16.90;77.50;;;;;;5098540;28;20427;-63
2023/06/01 07:24:19;;;;;;;16.30;14.70;;;16.90;78.30;;;;;;5101705;28;20860;-64
2023/06/01 07:26:46;;;;;;;15.38;13.80;;;17.10;77.30;;;;;;5094840;28;20473;-64
2023/06/01 07:29:14;;;;;;;16.30;14.80;;;17.30;76.00;;;;;;5097644;28;20466;-64
2023/06/01 07:31:41;;;;;;;16.90;15.30;;;17.50;74.90;;;;;;5097673;28;20459;-65
2023/06/01 07:34:08;;;;;;;16.73;15.15;;;17.60;74.00;;;;;;5098217;28;20428;-64
2023/06/01 07:36:36;;;;;;;17.25;13.75;;;17.60;73.90;;;;;;5086497;28;20410;-65
2023/06/01 07:39:05;;;;;;;16.77;15.23;;;17.70;73.30;;;;;;5093866;28;20888;-64
2023/06/01 07:41:32;;;;;;;45.75;41.55;;;17.80;72.80;;;;;;5092307;28;20515;-74
2023/06/01 07:43:59;;;;;;;17.13;15.43;;;17.70;72.20;;;;;;5097571;28;20970;-74
2023/06/01 07:46:27;;;;;;;17.50;15.80;;;17.70;72.00;;;;;;5104264;28;20507;-73
2023/06/01 07:48:54;;;;;;;17.40;15.70;;;17.70;71.60;;;;;;5097168;28;20416;-73
2023/06/01 07:51:21;;;;;;;15.25;13.75;;;17.60;72.30;;;;;;5098503;28;20432;-74
2023/06/01 07:53:48;;;;;;;17.13;15.40;;;17.70;72.40;;;;;;5098346;28;20752;-73
2023/06/01 07:56:14;;;;;;;18.02;16.15;;;17.80;71.30;;;;;;5098999;28;20604;-72
2023/06/01 07:58:42;;;;;;;16.15;14.45;;;17.80;70.20;;;;;;5091340;28;20429;-75
2023/06/01 08:01:09;;;;;;;15.43;13.93;;;17.70;70.70;;;;;;5101691;28;20433;-75
2023/06/01 08:03:37;;;;;;;15.52;14.02;;;17.70;71.50;;;;;;5100152;28;20515;-74
2023/06/01 08:06:04;;;;;;;16.38;14.50;;;17.90;71.10;;;;;;5098207;28;20499;-74
2023/06/01 08:08:31;;;;;;;17.20;15.50;;;18.30;68.50;;;;;;5099232;28;20520;-74
2023/06/01 08:10:58;;;;;;;16.38;14.98;;;18.20;68.30;;;;;;5092940;28;20903;-75
2023/06/01 08:13:25;;;;;;;15.32;13.82;;;18.20;68.50;;;;;;5097092;28;20435;-74
2023/06/01 08:15:52;;;;;;;14.43;13.02;;;18.10;68.80;;;;;;5094978;28;20456;-74
2023/06/01 08:18:21;;;;;;;16.08;14.38;;;18.30;68.50;;;;;;5093258;28;20456;-74
2023/06/01 08:20:50;;;;;;;16.97;15.37;;;18.60;67.50;;;;;;5095214;28;20428;-73
2023/06/01 08:23:17;;;;;;;15.77;14.38;;;19.00;65.30;;;;;;5093634;28;20433;-74
2023/06/01 08:25:44;;;;;;;16.70;15.13;;;19.10;64.20;;;;;;5103498;28;20446;-74
2023/06/01 08:28:11;;;;;;;16.23;14.63;;;19.20;63.90;;;;;;5100028;28;20432;-74
2023/06/01 08:30:38;;;;;;;17.13;15.53;;;19.20;63.70;;;;;;5096810;28;20473;-74
2023/06/01 08:33:05;;;;;;;15.15;13.65;;;19.20;64.60;;;;;;5089020;28;20752;-74
2023/06/01 08:35:33;;;;;;;17.35;15.55;;;19.20;64.10;;;;;;5095357;28;20925;-74
2023/06/01 08:38:01;;;;;;;17.15;15.45;;;19.20;63.30;;;;;;5092952;28;20895;-74
2023/06/01 08:40:31;;;;;;;16.77;15.27;;;19.20;63.30;;;;;;5094079;28;20594;-74
2023/06/01 08:43:00;;;;;;;16.48;14.88;;;19.30;63.30;;;;;;5099664;28;20424;-74
2023/06/01 08:45:27;;;;;;;17.77;15.95;;;19.30;62.50;;;;;;5092084;28;20452;-74
2023/06/01 08:47:54;;;;;;;17.63;16.03;;;19.40;61.90;;;;;;5095855;28;20971;-74
2023/06/01 08:50:21;;;;;;;17.00;15.50;;;19.40;60.90;;;;;;5102263;28;20431;-74
2023/06/01 08:52:50;;;;;;;17.73;15.93;;;19.10;61.40;;;;;;5092180;28;20513;-74
2023/06/01 08:55:18;;;;;;;19.40;17.50;;;19.10;62.10;;;;;;5091692;28;20428;-74
2023/06/01 08:57:45;;;;;;;17.60;16.00;;;19.20;62.20;;;;;;5088562;28;20436;-73
2023/06/01 09:00:13;;;;;;;18.00;16.20;;;19.20;62.00;;;;;;5101493;28;20435;-77
2023/06/01 09:02:42;;;;;;;17.90;16.30;;;19.40;60.40;;;;;;5095153;28;20492;-73
2023/06/01 09:05:09;;;;;;;19.48;17.58;;;19.30;61.10;;;;;;5092208;28;20431;-74
2023/06/01 09:07:36;;;;;;;16.20;14.60;;;19.40;61.30;;;;;;5096504;28;20547;-74
2023/06/01 09:10:03;;;;;;;15.82;14.32;;;19.60;61.20;;;;;;5095808;28;20432;-73
2023/06/01 09:12:33;;;;;;;17.47;15.67;;;19.80;60.30;;;;;;5096654;28;20421;-73
2023/06/01 09:15:11;;;;;;;15.50;13.90;;;20.10;59.70;;;;;;5095884;28;20516;-74
2023/06/01 09:17:39;;;;;;;14.73;13.32;;;20.40;58.30;;;;;;5094910;28;20481;-74
2023/06/01 09:20:11;;;;;;;15.88;14.30;;;20.60;56.60;;;;;;5094475;28;20536;-75
2023/06/01 09:22:43;;;;;;;15.07;13.68;;;20.80;54.40;;;;;;5094831;28;20884;-74
2023/06/01 09:25:12;;;;;;;15.77;14.07;;;20.80;54.50;;;;;;5095861;28;20986;-74
2023/06/01 09:27:50;;;;;;;15.85;14.45;;;20.90;53.50;;;;;;5097924;28;20604;-74
2023/06/01 09:30:19;;;;;;;16.58;15.13;;;20.90;52.60;;;;;;5090102;28;20425;-67
2023/06/01 09:32:50;;;;;;;16.33;13.38;;;20.90;51.70;;;;;;5097284;28;20427;-68
2023/06/01 09:35:17;;;;;;;13.80;12.50;;;21.00;52.40;;;;;;5094934;28;20416;-71
2023/06/01 09:37:55;;;;;;;14.65;13.25;;;21.20;51.60;;;;;;5097221;28;20886;-70
2023/06/01 09:40:22;;;;;;;13.02;11.73;;;21.50;51.10;;;;;;5101920;28;20436;-70
2023/06/01 09:42:51;;;;;;;13.80;12.60;;;21.80;49.20;;;;;;5106265;23;20436;-76
2023/06/01 09:45:20;;;;;;;15.07;13.77;;;22.00;48.20;;;;;;5065624;28;20930;-74
2023/06/01 09:47:47;;;;;;;15.40;13.90;;;22.00;48.20;;;;;;5070000;28;20412;-75
2023/06/01 09:50:33;;;;;;;14.53;13.10;;;22.00;47.90;;;;;;5063188;28;20877;-76
2023/06/01 09:53:00;;;;;;;14.80;12.93;;;21.80;48.10;;;;;;5067105;28;20424;-75
2023/06/01 09:55:27;;;;;;;13.38;12.13;;;21.90;47.50;;;;;;5042108;28;20475;-76
2023/06/01 09:58:20;;;;;;;14.32;11.80;;;21.90;47.70;;;;;;5050231;28;20418;-75
2023/06/01 10:00:47;;;;;;;12.48;11.18;;;22.10;48.00;;;;;;5055281;28;20431;-75
2023/06/01 10:03:15;;;;;;;12.88;10.43;;;22.20;47.10;;;;;;5058811;28;20417;-75
2023/06/01 10:05:43;;;;;;;13.05;11.18;;;22.40;46.50;;;;;;5050309;28;20435;-76
2023/06/01 10:08:12;;;;;;;11.35;10.25;;;22.70;45.40;;;;;;5052337;28;20428;-76
2023/06/01 10:10:39;;;;;;;10.93;9.93;;;22.90;43.00;;;;;;5049938;28;20417;-76
2023/06/01 10:13:06;;;;;;;10.70;9.70;;;22.80;42.60;;;;;;5058095;28;20443;-75
2023/06/01 10:15:35;;;;;;;10.85;9.95;;;22.80;44.10;;;;;;5052552;28;21291;-76
2023/06/01 10:18:03;;;;;;;8.93;8.02;;;22.90;42.10;;;;;;5051210;28;20614;-76
2023/06/01 10:20:33;;;;;;;8.32;7.50;;;23.10;42.50;;;;;;5049817;28;20429;-76
2023/06/01 10:23:00;;;;;;;9.32;8.48;;;23.40;41.60;;;;;;5046107;28;20923;-75
2023/06/01 10:25:31;;;;;;;8.75;7.95;;;23.70;40.50;;;;;;5045490;28;20425;-76
2023/06/01 10:28:01;;;;;;;8.03;7.30;;;23.80;39.80;;;;;;5051038;28;20421;-76
2023/06/01 10:30:28;;;;;;;8.90;7.95;;;23.90;39.90;;;;;;5061928;28;20429;-75
2023/06/01 10:32:56;;;;;;;9.10;8.20;;;24.00;39.30;;;;;;5075250;28;20443;-76
2023/06/01 10:36:00;;;;;;;9.70;8.70;;;24.00;39.00;;;;;;5075362;28;20408;-76
2023/06/01 10:38:27;;;;;;;10.20;9.20;;;23.90;38.50;;;;;;5075902;28;20423;-76
2023/06/01 10:40:55;;;;;;;8.88;7.97;;;23.90;37.90;;;;;;5068545;28;20440;-76
2023/06/01 10:43:40;;;;;;;9.27;8.40;;;23.80;38.60;;;;;;5052184;28;20805;-76
2023/06/01 10:46:38;;;;;;;8.90;8.10;;;23.90;39.00;;;;;;5047522;28;20425;-74
2023/06/01 10:49:06;;;;;;;8.35;7.50;;;24.00;39.50;;;;;;5042542;28;20443;-77
2023/06/01 10:51:34;;;;;;;8.40;7.60;;;24.20;40.00;;;;;;5057075;28;20440;-76
2023/06/01 10:54:38;;;;;;;9.50;8.70;;;24.40;38.50;;;;;;5066204;28;20413;-77
2023/06/01 10:57:23;;;;;;;8.35;7.60;;;24.60;37.60;;;;;;5062764;28;20823;-76
2023/06/01 11:00:11;;;;;;;7.90;6.80;;;24.90;38.60;;;;;;5051756;28;20449;-76
2023/06/01 11:02:48;;;;;;;7.47;6.88;;;25.00;38.00;;;;;;5048726;28;20442;-75
2023/06/01 11:05:39;;;;;;;8.00;7.40;;;25.10;37.30;;;;;;5045883;28;20435;-76
2023/06/01 11:08:08;;;;;;;9.52;8.73;;;25.30;37.70;;;;;;5044237;28;20441;-76
2023/06/01 11:10:58;;;;;;;10.15;9.25;;;25.40;36.90;;;;;;5036424;28;20818;-75
2023/06/01 11:13:27;;;;;;;11.13;10.13;;;25.40;36.50;;;;;;5036796;28;20542;-74
2023/06/01 11:16:28;;;;;;;9.48;8.68;;;25.30;36.40;;;;;;5037395;28;20511;-75
2023/06/01 11:18:57;;;;;;;11.65;10.65;;;25.30;37.20;;;;;;5044624;28;20431;-76
2023/06/01 11:21:27;;;;;;;9.77;8.98;;;25.30;36.70;;;;;;5058706;28;20470;-76
2023/06/01 11:23:55;;;;;;;13.60;12.50;;;25.40;37.50;;;;;;5055556;28;20443;-75
2023/06/01 11:26:25;;;;;;;11.00;10.00;;;25.40;36.00;;;;;;5053685;28;20432;-75
2023/06/01 11:28:53;;;;;;;10.60;9.50;;;25.50;36.10;;;;;;5052069;28;20432;-76
2023/06/01 11:31:20;;;;;;;9.30;8.50;;;25.60;35.70;;;;;;5043974;28;20534;-75
2023/06/01 11:33:52;;;;;;;10.00;9.05;;;25.80;35.50;;;;;;5044035;28;20767;-71
2023/06/01 11:36:20;;;;;;;10.60;9.60;;;26.00;34.70;;;;;;5040926;28;20429;-72
2023/06/01 11:38:48;;;;;;;10.60;9.70;;;25.80;34.60;;;;;;5043625;28;20516;-70
2023/06/01 11:41:15;;;;;;;12.45;11.25;;;25.70;34.60;;;;;;5043540;28;20433;-70
2023/06/01 11:43:41;;;;;;;11.70;10.70;;;25.70;34.70;;;;;;5046702;28;20437;-72
2023/06/01 11:46:10;;;;;;;12.02;10.70;;;25.60;35.00;;;;;;5047096;28;20436;-72
2023/06/01 11:48:37;;;;;;;10.70;9.70;;;25.80;34.80;;;;;;5044315;28;20434;-72
2023/06/01 11:51:05;;;;;;;39.00;35.58;;;26.30;35.00;;;;;;5035423;28;20438;-71
2023/06/01 11:53:32;;;;;;;1098.30;772.47;;;26.60;34.10;;;;;;5046438;28;20429;-71
2023/06/01 11:56:02;;;;;;;199.57;171.40;;;26.70;35.50;;;;;;5043693;28;20429;-75
2023/06/01 11:58:31;;;;;;;280.42;241.73;;;26.80;35.10;;;;;;5051338;28;20491;-72
2023/06/01 12:00:59;;;;;;;169.05;145.38;;;26.80;34.20;;;;;;5064047;28;20699;-74
2023/06/01 12:03:26;;;;;;;108.05;69.22;;;26.90;33.20;;;;;;5064268;28;20505;-70
2023/06/01 12:05:53;;;;;;;72.55;64.85;;;26.80;32.90;;;;;;5044487;28;21214;-69
2023/06/01 12:08:21;;;;;;;49.97;43.85;;;26.70;33.10;;;;;;5050919;28;20438;-72
2023/06/01 12:10:50;;;;;;;26.70;23.83;;;26.50;32.80;;;;;;5054928;28;20426;-69
2023/06/01 12:13:20;;;;;;;47.83;42.05;;;26.40;33.30;;;;;;5054721;28;20453;-68
2023/06/01 12:15:47;;;;;;;29.17;26.23;;;26.60;34.30;;;;;;5047244;28;20862;-70
2023/06/01 12:18:14;;;;;;;23.92;21.65;;;26.80;33.20;;;;;;5047375;28;20435;-70
2023/06/01 12:20:42;;;;;;;25.77;23.02;;;27.00;32.90;;;;;;5049573;28;20422;-69
2023/06/01 12:23:19;;;;;;;23.77;21.30;;;27.40;32.70;;;;;;5041254;28;21018;-70
2023/06/01 12:25:50;;;;;;;20.75;18.63;;;27.60;33.30;;;;;;5051123;28;20451;-69
2023/06/01 12:28:19;;;;;;;22.10;19.90;;;27.60;32.40;;;;;;5053354;28;20513;-70
2023/06/01 12:30:48;;;;;;;19.17;14.60;;;27.50;31.50;;;;;;5049066;28;20436;-71
2023/06/01 12:33:33;;;;;;;16.80;15.10;;;27.30;31.00;;;;;;5051095;28;20413;-71
2023/06/01 12:36:00;;;;;;;14.43;13.13;;;27.30;32.20;;;;;;5051167;28;20427;-71
2023/06/01 12:38:27;;;;;;;14.98;13.57;;;27.40;31.00;;;;;;5040130;28;20440;-71
2023/06/01 12:41:08;;;;;;;15.02;13.65;;;27.20;29.80;;;;;;5043420;28;21061;-72
2023/06/01 12:43:37;;;;;;;14.98;13.48;;;27.10;31.40;;;;;;5048848;28;20915;-72